sensor_id;sensor_type;location;lat;lon;timestamp;pressure;altitude;pressure_sealevel;temperature;humidity
11339;BME280;5724;42.684;23.252;2023-01-19T00:01:54;93159.59;;;13.01;51.82
11339;BME280;5724;42.684;23.252;2023-01-19T00:04:19;93145.06;;;13.08;51.79
11339;BME280;5724;42.684;23.252;2023-01-19T00:06:45;93155.25;;;13.07;52.02
11339;BME280;5724;42.684;23.252;2023-01-19T00:09:11;93186.19;;;13.08;51.96
11339;BME280;5724;42.684;23.252;2023-01-19T00:11:36;93184.22;;;13.08;52.13
11339;BME280;5724;42.684;23.252;2023-01-19T00:14:02;93167.06;;;12.97;52.84
11339;BME280;5724;42.684;23.252;2023-01-19T00:16:28;93197.63;;;12.92;53.18
11339;BME280;5724;42.684;23.252;2023-01-19T00:18:53;93159.25;;;12.96;53.18
11339;BME280;5724;42.684;23.252;2023-01-19T00:21:20;93182.69;;;13.00;53.08
11339;BME280;5724;42.684;23.252;2023-01-19T00:23:46;93184.34;;;12.90;52.75
11339;BME280;5724;42.684;23.252;2023-01-19T00:26:13;93199.94;;;13.01;52.65
11339;BME280;5724;42.684;23.252;2023-01-19T00:28:41;93205.81;;;13.03;52.62
11339;BME280;5724;42.684;23.252;2023-01-19T00:31:06;93198.34;;;13.07;52.25
11339;BME280;5724;42.684;23.252;2023-01-19T00:33:31;93199.16;;;13.00;52.54
11339;BME280;5724;42.684;23.252;2023-01-19T00:35:57;93219.91;;;13.01;52.49
11339;BME280;5724;42.684;23.252;2023-01-19T00:38:22;93208.09;;;13.11;51.13
11339;BME280;5724;42.684;23.252;2023-01-19T00:40:49;93195.16;;;13.15;51.34
11339;BME280;5724;42.684;23.252;2023-01-19T00:43:14;93207.34;;;13.07;51.90
11339;BME280;5724;42.684;23.252;2023-01-19T00:45:40;93201.91;;;13.00;52.15
11339;BME280;5724;42.684;23.252;2023-01-19T00:48:06;93199.94;;;13.04;52.02
11339;BME280;5724;42.684;23.252;2023-01-19T00:50:32;93208.16;;;13.01;51.84
11339;BME280;5724;42.684;23.252;2023-01-19T00:52:58;93217.16;;;13.05;51.03
11339;BME280;5724;42.684;23.252;2023-01-19T00:55:28;93160.00;;;13.00;51.54
11339;BME280;5724;42.684;23.252;2023-01-19T00:57:54;93172.88;;;13.06;51.28
11339;BME280;5724;42.684;23.252;2023-01-19T01:00:20;93203.78;;;13.10;50.98
11339;BME280;5724;42.684;23.252;2023-01-19T01:02:48;93186.59;;;13.06;51.27
11339;BME280;5724;42.684;23.252;2023-01-19T01:05:14;93182.28;;;13.05;51.30
11339;BME280;5724;42.684;23.252;2023-01-19T01:07:40;93219.88;;;13.08;51.15
11339;BME280;5724;42.684;23.252;2023-01-19T01:12:37;93192.13;;;12.99;51.25
11339;BME280;5724;42.684;23.252;2023-01-19T01:15:05;93181.59;;;12.94;51.74
11339;BME280;5724;42.684;23.252;2023-01-19T01:17:31;93149.13;;;12.85;51.72
11339;BME280;5724;42.684;23.252;2023-01-19T01:19:57;93162.00;;;12.92;51.66
11339;BME280;5724;42.684;23.252;2023-01-19T01:22:22;93195.28;;;12.94;51.29
11339;BME280;5724;42.684;23.252;2023-01-19T01:24:48;93136.53;;;12.95;50.70
11339;BME280;5724;42.684;23.252;2023-01-19T01:27:13;93170.22;;;12.96;50.87
11339;BME280;5724;42.684;23.252;2023-01-19T01:29:39;93205.81;;;12.99;50.94
11339;BME280;5724;42.684;23.252;2023-01-19T01:32:06;93150.16;;;13.02;50.04
11339;BME280;5724;42.684;23.252;2023-01-19T01:34:32;93172.84;;;13.13;50.03
11339;BME280;5724;42.684;23.252;2023-01-19T01:36:58;93172.03;;;13.16;49.69
11339;BME280;5724;42.684;23.252;2023-01-19T01:39:23;93201.41;;;13.20;50.08
11339;BME280;5724;42.684;23.252;2023-01-19T01:41:48;93190.06;;;13.14;49.71
11339;BME280;5724;42.684;23.252;2023-01-19T01:44:49;93210.44;;;13.13;49.84
11339;BME280;5724;42.684;23.252;2023-01-19T01:49:45;93195.16;;;13.12;49.82
11339;BME280;5724;42.684;23.252;2023-01-19T01:52:13;93194.41;;;13.08;49.86
11339;BME280;5724;42.684;23.252;2023-01-19T01:54:39;93184.59;;;13.10;49.63
11339;BME280;5724;42.684;23.252;2023-01-19T01:57:07;93188.09;;;13.14;49.44
11339;BME280;5724;42.684;23.252;2023-01-19T01:59:40;93191.22;;;13.16;49.38
11339;BME280;5724;42.684;23.252;2023-01-19T02:02:15;93181.44;;;13.15;49.51
11339;BME280;5724;42.684;23.252;2023-01-19T02:05:03;93190.84;;;13.14;49.52
11339;BME280;5724;42.684;23.252;2023-01-19T02:07:44;93199.81;;;13.18;49.86
11339;BME280;5724;42.684;23.252;2023-01-19T02:10:30;93192.78;;;13.21;49.83
11339;BME280;5724;42.684;23.252;2023-01-19T02:13:14;93179.84;;;13.18;49.27
11339;BME280;5724;42.684;23.252;2023-01-19T02:15:49;93183.41;;;13.15;49.23
11339;BME280;5724;42.684;23.252;2023-01-19T02:18:16;93180.25;;;13.16;49.29
11339;BME280;5724;42.684;23.252;2023-01-19T02:20:57;93156.03;;;13.08;49.29
11339;BME280;5724;42.684;23.252;2023-01-19T02:23:51;93157.25;;;13.03;49.64
11339;BME280;5724;42.684;23.252;2023-01-19T02:26:22;93176.44;;;13.03;49.44
11339;BME280;5724;42.684;23.252;2023-01-19T02:28:55;93181.94;;;13.00;49.13
11339;BME280;5724;42.684;23.252;2023-01-19T02:31:22;93177.97;;;13.08;48.97
11339;BME280;5724;42.684;23.252;2023-01-19T02:33:48;93175.19;;;13.11;48.80
11339;BME280;5724;42.684;23.252;2023-01-19T02:36:15;93168.91;;;13.11;48.41
11339;BME280;5724;42.684;23.252;2023-01-19T02:38:43;93181.84;;;13.14;48.78
11339;BME280;5724;42.684;23.252;2023-01-19T02:41:12;93176.00;;;13.08;49.04
11339;BME280;5724;42.684;23.252;2023-01-19T02:43:41;93185.78;;;13.09;48.66
11339;BME280;5724;42.684;23.252;2023-01-19T02:46:07;93188.16;;;13.07;48.85
11339;BME280;5724;42.684;23.252;2023-01-19T02:48:33;93202.19;;;13.16;48.36
11339;BME280;5724;42.684;23.252;2023-01-19T02:51:01;93191.63;;;13.11;48.38
11339;BME280;5724;42.684;23.252;2023-01-19T02:53:35;93174.81;;;13.09;48.53
11339;BME280;5724;42.684;23.252;2023-01-19T03:04:58;93212.78;;;13.11;48.32
11339;BME280;5724;42.684;23.252;2023-01-19T03:15:20;93173.28;;;13.05;48.32
11339;BME280;5724;42.684;23.252;2023-01-19T03:17:49;93221.06;;;13.07;48.34
11339;BME280;5724;42.684;23.252;2023-01-19T03:20:20;93213.63;;;13.04;48.28
11339;BME280;5724;42.684;23.252;2023-01-19T03:22:53;93202.25;;;13.06;48.33
11339;BME280;5724;42.684;23.252;2023-01-19T03:25:21;93179.56;;;13.05;48.20
11339;BME280;5724;42.684;23.252;2023-01-19T03:27:49;93196.78;;;13.06;47.58
11339;BME280;5724;42.684;23.252;2023-01-19T03:30:21;93200.25;;;13.10;47.20
11339;BME280;5724;42.684;23.252;2023-01-19T03:32:55;93186.53;;;13.13;47.29
11339;BME280;5724;42.684;23.252;2023-01-19T03:35:25;93190.47;;;13.12;47.75
11339;BME280;5724;42.684;23.252;2023-01-19T03:37:55;93170.91;;;13.07;47.80
11339;BME280;5724;42.684;23.252;2023-01-19T03:40:25;93176.00;;;13.08;47.59
11339;BME280;5724;42.684;23.252;2023-01-19T03:42:52;93199.84;;;13.11;46.89
11339;BME280;5724;42.684;23.252;2023-01-19T03:45:18;93175.56;;;13.13;47.51
11339;BME280;5724;42.684;23.252;2023-01-19T03:47:43;93177.22;;;13.00;47.74
11339;BME280;5724;42.684;23.252;2023-01-19T03:50:15;93198.75;;;13.02;48.16
11339;BME280;5724;42.684;23.252;2023-01-19T03:52:43;93183.91;;;12.96;47.95
11339;BME280;5724;42.684;23.252;2023-01-19T03:55:09;93191.34;;;12.99;47.54
11339;BME280;5724;42.684;23.252;2023-01-19T03:57:35;93177.59;;;13.02;47.58
11339;BME280;5724;42.684;23.252;2023-01-19T04:00:01;93185.81;;;13.02;47.48
11339;BME280;5724;42.684;23.252;2023-01-19T04:02:26;93214.00;;;13.06;47.47
11339;BME280;5724;42.684;23.252;2023-01-19T04:04:52;93198.34;;;13.07;47.16
11339;BME280;5724;42.684;23.252;2023-01-19T04:07:17;93219.13;;;13.04;47.13
11339;BME280;5724;42.684;23.252;2023-01-19T04:09:43;93179.91;;;13.07;46.48
11339;BME280;5724;42.684;23.252;2023-01-19T04:12:08;93200.69;;;13.08;46.48
11339;BME280;5724;42.684;23.252;2023-01-19T04:14:34;93181.09;;;13.06;46.44
11339;BME280;5724;42.684;23.252;2023-01-19T04:16:59;93210.91;;;13.01;46.79
11339;BME280;5724;42.684;23.252;2023-01-19T04:19:25;93092.59;;;13.02;46.07
11339;BME280;5724;42.684;23.252;2023-01-19T04:21:50;93176.38;;;13.10;46.16
11339;BME280;5724;42.684;23.252;2023-01-19T04:24:16;93166.63;;;13.06;46.33
11339;BME280;5724;42.684;23.252;2023-01-19T04:26:42;93154.47;;;13.07;46.23
11339;BME280;5724;42.684;23.252;2023-01-19T04:29:07;93152.09;;;13.12;45.57
11339;BME280;5724;42.684;23.252;2023-01-19T04:31:33;93138.69;;;13.18;45.07
11339;BME280;5724;42.684;23.252;2023-01-19T04:34:00;93164.56;;;13.21;45.18
11339;BME280;5724;42.684;23.252;2023-01-19T04:36:26;93149.28;;;13.20;44.94
11339;BME280;5724;42.684;23.252;2023-01-19T04:38:52;93172.38;;;13.26;45.10
11339;BME280;5724;42.684;23.252;2023-01-19T04:41:18;93152.81;;;13.24;44.31
11339;BME280;5724;42.684;23.252;2023-01-19T04:43:44;93176.25;;;13.28;44.18
11339;BME280;5724;42.684;23.252;2023-01-19T04:46:09;93156.66;;;13.33;44.00
11339;BME280;5724;42.684;23.252;2023-01-19T04:48:35;93182.53;;;13.29;44.00
11339;BME280;5724;42.684;23.252;2023-01-19T04:51:00;93148.41;;;13.30;43.79
11339;BME280;5724;42.684;23.252;2023-01-19T04:53:26;93161.31;;;13.36;43.58
11339;BME280;5724;42.684;23.252;2023-01-19T04:55:52;93172.69;;;13.31;44.01
11339;BME280;5724;42.684;23.252;2023-01-19T04:58:19;93152.66;;;13.41;43.22
11339;BME280;5724;42.684;23.252;2023-01-19T05:00:44;93191.84;;;13.42;43.57
11339;BME280;5724;42.684;23.252;2023-01-19T05:03:10;93162.81;;;13.41;43.62
11339;BME280;5724;42.684;23.252;2023-01-19T05:05:35;93207.84;;;13.47;44.01
11339;BME280;5724;42.684;23.252;2023-01-19T05:08:01;93175.25;;;13.56;43.53
11339;BME280;5724;42.684;23.252;2023-01-19T05:10:27;93195.69;;;13.48;43.71
11339;BME280;5724;42.684;23.252;2023-01-19T05:12:53;93216.88;;;13.51;43.82
11339;BME280;5724;42.684;23.252;2023-01-19T05:15:18;93182.75;;;13.49;43.51
11339;BME280;5724;42.684;23.252;2023-01-19T05:17:44;93238.03;;;13.47;44.04
11339;BME280;5724;42.684;23.252;2023-01-19T05:20:11;93234.56;;;13.43;44.21
11339;BME280;5724;42.684;23.252;2023-01-19T05:22:37;93238.03;;;13.47;43.76
11339;BME280;5724;42.684;23.252;2023-01-19T05:25:04;93222.41;;;13.44;44.19
11339;BME280;5724;42.684;23.252;2023-01-19T05:27:29;93204.44;;;13.36;44.48
11339;BME280;5724;42.684;23.252;2023-01-19T05:29:55;93231.03;;;13.42;44.08
11339;BME280;5724;42.684;23.252;2023-01-19T05:32:20;93222.81;;;13.39;44.33
11339;BME280;5724;42.684;23.252;2023-01-19T05:34:46;93143.34;;;13.32;43.74
11339;BME280;5724;42.684;23.252;2023-01-19T05:37:11;93220.94;;;13.32;44.18
11339;BME280;5724;42.684;23.252;2023-01-19T05:39:37;93220.88;;;13.36;44.06
11339;BME280;5724;42.684;23.252;2023-01-19T05:42:02;93209.19;;;13.28;43.38
11339;BME280;5724;42.684;23.252;2023-01-19T05:44:28;93216.19;;;13.36;43.90
11339;BME280;5724;42.684;23.252;2023-01-19T05:46:53;93227.97;;;13.30;43.29
11339;BME280;5724;42.684;23.252;2023-01-19T05:49:19;93247.59;;;13.28;43.57
11339;BME280;5724;42.684;23.252;2023-01-19T05:51:44;93242.13;;;13.21;44.57
11339;BME280;5724;42.684;23.252;2023-01-19T05:54:12;93235.88;;;13.21;44.84
11339;BME280;5724;42.684;23.252;2023-01-19T05:56:39;93229.59;;;13.24;44.54
11339;BME280;5724;42.684;23.252;2023-01-19T05:59:05;93203.72;;;13.25;44.36
11339;BME280;5724;42.684;23.252;2023-01-19T06:01:30;93238.56;;;13.28;44.21
11339;BME280;5724;42.684;23.252;2023-01-19T06:03:57;93215.47;;;13.25;44.15
11339;BME280;5724;42.684;23.252;2023-01-19T06:06:22;93233.53;;;13.23;44.34
11339;BME280;5724;42.684;23.252;2023-01-19T06:08:48;93235.09;;;13.20;44.33
11339;BME280;5724;42.684;23.252;2023-01-19T06:11:13;93240.59;;;13.20;44.13
11339;BME280;5724;42.684;23.252;2023-01-19T06:13:39;93245.28;;;13.23;44.57
11339;BME280;5724;42.684;23.252;2023-01-19T06:16:05;93230.38;;;13.24;44.37
11339;BME280;5724;42.684;23.252;2023-01-19T06:18:31;93234.31;;;13.20;44.45
11339;BME280;5724;42.684;23.252;2023-01-19T06:20:56;93221.00;;;13.14;44.72
11339;BME280;5724;42.684;23.252;2023-01-19T06:23:29;93193.56;;;13.18;44.43
11339;BME280;5724;42.684;23.252;2023-01-19T06:25:55;93202.19;;;13.24;44.71
11339;BME280;5724;42.684;23.252;2023-01-19T06:28:21;93223.72;;;13.22;44.75
11339;BME280;5724;42.684;23.252;2023-01-19T06:30:51;93211.97;;;13.25;44.74
11339;BME280;5724;42.684;23.252;2023-01-19T06:33:17;93235.09;;;13.24;44.90
11339;BME280;5724;42.684;23.252;2023-01-19T06:35:44;93233.91;;;13.25;44.88
11339;BME280;5724;42.684;23.252;2023-01-19T06:38:10;93228.75;;;13.34;44.79
11339;BME280;5724;42.684;23.252;2023-01-19T06:40:38;93263.63;;;13.30;44.74
11339;BME280;5724;42.684;23.252;2023-01-19T06:43:03;93267.13;;;13.37;45.13
11339;BME280;5724;42.684;23.252;2023-01-19T06:45:29;93275.38;;;13.30;46.24
11339;BME280;5724;42.684;23.252;2023-01-19T06:47:54;93269.19;;;13.15;47.62
11339;BME280;5724;42.684;23.252;2023-01-19T06:50:20;93302.13;;;13.08;47.47
11339;BME280;5724;42.684;23.252;2023-01-19T06:52:51;93289.94;;;13.16;46.27
11339;BME280;5724;42.684;23.252;2023-01-19T06:55:16;93275.06;;;13.21;45.86
11339;BME280;5724;42.684;23.252;2023-01-19T06:57:42;93282.47;;;13.28;45.91
11339;BME280;5724;42.684;23.252;2023-01-19T07:00:09;93291.88;;;13.27;46.24
11339;BME280;5724;42.684;23.252;2023-01-19T07:02:36;93300.88;;;13.27;45.84
11339;BME280;5724;42.684;23.252;2023-01-19T07:05:02;93298.53;;;13.33;46.28
11339;BME280;5724;42.684;23.252;2023-01-19T07:07:27;93284.41;;;13.31;46.48
11339;BME280;5724;42.684;23.252;2023-01-19T07:09:53;93256.97;;;13.34;46.03
11339;BME280;5724;42.684;23.252;2023-01-19T07:12:19;93274.16;;;13.42;45.06
11339;BME280;5724;42.684;23.252;2023-01-19T07:14:44;93287.41;;;13.54;44.00
11339;BME280;5724;42.684;23.252;2023-01-19T07:17:11;93274.00;;;13.63;43.85
11339;BME280;5724;42.684;23.252;2023-01-19T07:19:36;93265.69;;;13.74;43.32
11339;BME280;5724;42.684;23.252;2023-01-19T07:22:02;93264.84;;;13.77;43.23
11339;BME280;5724;42.684;23.252;2023-01-19T07:24:27;93264.84;;;13.77;43.18
11339;BME280;5724;42.684;23.252;2023-01-19T07:26:55;93293.41;;;13.90;42.82
11339;BME280;5724;42.684;23.252;2023-01-19T07:29:21;93300.81;;;13.93;43.27
11339;BME280;5724;42.684;23.252;2023-01-19T07:31:46;93301.22;;;13.88;43.85
11339;BME280;5724;42.684;23.252;2023-01-19T07:34:13;93299.72;;;13.84;44.37
11339;BME280;5724;42.684;23.252;2023-01-19T07:36:39;93291.91;;;13.79;44.70
11339;BME280;5724;42.684;23.252;2023-01-19T07:39:04;93298.22;;;13.75;44.05
11339;BME280;5724;42.684;23.252;2023-01-19T07:41:30;93291.44;;;13.87;43.58
11339;BME280;5724;42.684;23.252;2023-01-19T07:43:56;93273.31;;;14.00;42.42
11339;BME280;5724;42.684;23.252;2023-01-19T07:46:21;93283.34;;;14.14;41.99
11339;BME280;5724;42.684;23.252;2023-01-19T07:48:46;93277.81;;;14.21;41.65
11339;BME280;5724;42.684;23.252;2023-01-19T07:51:12;93291.47;;;14.28;41.51
11339;BME280;5724;42.684;23.252;2023-01-19T07:53:43;93297.75;;;14.29;41.61
11339;BME280;5724;42.684;23.252;2023-01-19T07:56:08;93293.41;;;14.31;40.48
11339;BME280;5724;42.684;23.252;2023-01-19T07:58:34;93302.34;;;14.39;41.15
11339;BME280;5724;42.684;23.252;2023-01-19T08:01:04;93314.50;;;14.42;41.40
11339;BME280;5724;42.684;23.252;2023-01-19T08:03:30;93286.59;;;14.47;41.26
11339;BME280;5724;42.684;23.252;2023-01-19T08:05:55;93308.97;;;14.49;41.51
11339;BME280;5724;42.684;23.252;2023-01-19T08:08:21;93304.13;;;14.60;40.91
11339;BME280;5724;42.684;23.252;2023-01-19T08:10:50;93317.47;;;14.62;41.05
11339;BME280;5724;42.684;23.252;2023-01-19T08:13:16;93313.03;;;14.71;40.26
11339;BME280;5724;42.684;23.252;2023-01-19T08:15:43;93307.50;;;14.75;40.27
11339;BME280;5724;42.684;23.252;2023-01-19T08:18:08;93313.97;;;14.92;40.16
11339;BME280;5724;42.684;23.252;2023-01-19T08:20:36;93316.28;;;14.97;39.34
11339;BME280;5724;42.684;23.252;2023-01-19T08:23:03;93306.09;;;14.94;39.03
11339;BME280;5724;42.684;23.252;2023-01-19T08:25:35;93312.94;;;15.12;39.30
11339;BME280;5724;42.684;23.252;2023-01-19T08:28:03;93325.81;;;15.19;39.04
11339;BME280;5724;42.684;23.252;2023-01-19T08:30:29;93324.22;;;15.22;38.64
11339;BME280;5724;42.684;23.252;2023-01-19T08:32:55;93324.72;;;15.13;38.29
11339;BME280;5724;42.684;23.252;2023-01-19T08:35:32;93327.38;;;15.20;38.16
11339;BME280;5724;42.684;23.252;2023-01-19T08:37:58;93313.72;;;15.13;38.84
11339;BME280;5724;42.684;23.252;2023-01-19T08:40:36;93351.03;;;15.14;39.01
11339;BME280;5724;42.684;23.252;2023-01-19T08:43:11;93343.13;;;15.20;38.80
11339;BME280;5724;42.684;23.252;2023-01-19T08:45:38;93333.16;;;15.29;38.91
11339;BME280;5724;42.684;23.252;2023-01-19T08:48:11;93332.66;;;15.38;38.14
11339;BME280;5724;42.684;23.252;2023-01-19T08:50:38;93350.72;;;15.39;38.28
11339;BME280;5724;42.684;23.252;2023-01-19T08:53:04;93317.28;;;15.40;38.03
11339;BME280;5724;42.684;23.252;2023-01-19T08:55:35;93355.25;;;15.53;38.54
11339;BME280;5724;42.684;23.252;2023-01-19T08:58:01;93366.19;;;15.63;38.15
11339;BME280;5724;42.684;23.252;2023-01-19T09:00:29;93345.75;;;15.61;38.24
11339;BME280;5724;42.684;23.252;2023-01-19T09:02:56;93360.59;;;15.67;38.32
11339;BME280;5724;42.684;23.252;2023-01-19T09:05:22;93363.00;;;15.65;38.26
11339;BME280;5724;42.684;23.252;2023-01-19T09:07:48;93371.56;;;15.70;38.17
11339;BME280;5724;42.684;23.252;2023-01-19T09:10:15;93377.84;;;15.71;37.63
11339;BME280;5724;42.684;23.252;2023-01-19T09:12:40;93349.28;;;15.61;37.95
11339;BME280;5724;42.684;23.252;2023-01-19T09:15:06;93364.50;;;15.69;37.84
11339;BME280;5724;42.684;23.252;2023-01-19T09:17:32;93360.00;;;15.83;37.75
11339;BME280;5724;42.684;23.252;2023-01-19T09:19:57;93389.72;;;15.95;38.12
11339;BME280;5724;42.684;23.252;2023-01-19T09:22:23;93371.94;;;15.99;37.73
11339;BME280;5724;42.684;23.252;2023-01-19T09:24:49;93368.81;;;15.97;37.78
11339;BME280;5724;42.684;23.252;2023-01-19T09:27:14;93370.88;;;15.90;38.01
11339;BME280;5724;42.684;23.252;2023-01-19T09:29:40;93359.69;;;15.77;37.31
11339;BME280;5724;42.684;23.252;2023-01-19T09:32:05;93361.13;;;15.85;36.76
11339;BME280;5724;42.684;23.252;2023-01-19T09:34:31;93365.97;;;16.05;37.23
11339;BME280;5724;42.684;23.252;2023-01-19T09:36:56;93342.63;;;16.13;37.44
11339;BME280;5724;42.684;23.252;2023-01-19T09:39:22;93360.28;;;16.15;37.07
11339;BME280;5724;42.684;23.252;2023-01-19T09:42:00;93367.34;;;16.40;37.28
11339;BME280;5724;42.684;23.252;2023-01-19T09:44:28;93368.75;;;16.51;36.74
11339;BME280;5724;42.684;23.252;2023-01-19T09:46:56;93366.63;;;16.59;36.61
11339;BME280;5724;42.684;23.252;2023-01-19T09:49:34;93352.53;;;16.30;36.71
11339;BME280;5724;42.684;23.252;2023-01-19T09:52:01;93339.78;;;16.40;36.82
11339;BME280;5724;42.684;23.252;2023-01-19T09:54:36;93329.50;;;16.44;37.13
11339;BME280;5724;42.684;23.252;2023-01-19T09:57:14;93302.22;;;16.26;36.79
11339;BME280;5724;42.684;23.252;2023-01-19T09:59:40;93321.16;;;16.24;36.44
11339;BME280;5724;42.684;23.252;2023-01-19T10:02:31;93309.75;;;16.45;36.20
11339;BME280;5724;42.684;23.252;2023-01-19T10:08:18;93330.63;;;16.70;36.72
11339;BME280;5724;42.684;23.252;2023-01-19T10:10:52;93340.81;;;16.73;37.43
11339;BME280;5724;42.684;23.252;2023-01-19T10:21:05;93293.22;;;16.45;36.41
11339;BME280;5724;42.684;23.252;2023-01-19T10:26:09;93292.16;;;16.59;36.32
11339;BME280;5724;42.684;23.252;2023-01-19T10:28:37;93292.38;;;16.48;36.51
11339;BME280;5724;42.684;23.252;2023-01-19T10:31:03;93320.06;;;16.65;36.52
11339;BME280;5724;42.684;23.252;2023-01-19T10:33:32;93337.97;;;16.76;35.86
11339;BME280;5724;42.684;23.252;2023-01-19T10:35:58;93308.06;;;16.75;36.44
11339;BME280;5724;42.684;23.252;2023-01-19T10:38:27;93339.97;;;16.76;36.47
11339;BME280;5724;42.684;23.252;2023-01-19T10:40:59;93320.72;;;16.72;35.83
11339;BME280;5724;42.684;23.252;2023-01-19T10:43:40;93310.84;;;16.51;35.98
11339;BME280;5724;42.684;23.252;2023-01-19T10:46:15;93306.38;;;16.57;35.95
11339;BME280;5724;42.684;23.252;2023-01-19T10:48:42;93285.69;;;16.69;36.04
11339;BME280;5724;42.684;23.252;2023-01-19T10:51:09;93287.63;;;16.49;35.99
11339;BME280;5724;42.684;23.252;2023-01-19T10:53:35;93283.28;;;16.51;36.08
11339;BME280;5724;42.684;23.252;2023-01-19T10:56:14;93297.25;;;16.41;36.19
11339;BME280;5724;42.684;23.252;2023-01-19T10:58:40;93278.38;;;16.16;36.24
11339;BME280;5724;42.684;23.252;2023-01-19T11:01:15;93305.31;;;15.81;37.36
11339;BME280;5724;42.684;23.252;2023-01-19T11:03:42;93295.19;;;15.74;37.19
11339;BME280;5724;42.684;23.252;2023-01-19T11:08:44;93298.06;;;15.91;37.49
11339;BME280;5724;42.684;23.252;2023-01-19T11:11:10;93261.41;;;15.70;37.24
11339;BME280;5724;42.684;23.252;2023-01-19T11:13:38;93282.03;;;15.59;37.97
11339;BME280;5724;42.684;23.252;2023-01-19T11:18:34;93283.28;;;15.81;38.32
11339;BME280;5724;42.684;23.252;2023-01-19T11:21:05;93271.97;;;15.76;37.63
11339;BME280;5724;42.684;23.252;2023-01-19T11:26:00;93260.91;;;16.02;37.79
11339;BME280;5724;42.684;23.252;2023-01-19T11:28:39;93272.75;;;16.23;37.44
11339;BME280;5724;42.684;23.252;2023-01-19T11:33:40;93252.22;;;16.47;36.16
11339;BME280;5724;42.684;23.252;2023-01-19T11:36:15;93265.06;;;16.34;36.45
11339;BME280;5724;42.684;23.252;2023-01-19T11:38:43;93276.75;;;16.18;36.90
11339;BME280;5724;42.684;23.252;2023-01-19T11:41:22;93265.38;;;16.59;37.13
11339;BME280;5724;42.684;23.252;2023-01-19T11:43:52;93267.22;;;16.66;36.63
11339;BME280;5724;42.684;23.252;2023-01-19T11:46:19;93275.78;;;16.52;36.15
11339;BME280;5724;42.684;23.252;2023-01-19T11:48:51;93242.63;;;16.55;36.39
11339;BME280;5724;42.684;23.252;2023-01-19T11:51:22;93250.78;;;16.39;36.80
11339;BME280;5724;42.684;23.252;2023-01-19T11:53:51;93250.94;;;16.32;36.33
11339;BME280;5724;42.684;23.252;2023-01-19T11:56:21;93257.84;;;16.40;36.93
11339;BME280;5724;42.684;23.252;2023-01-19T11:58:48;93239.72;;;16.43;35.95
11339;BME280;5724;42.684;23.252;2023-01-19T12:01:31;93242.13;;;16.60;36.09
11339;BME280;5724;42.684;23.252;2023-01-19T12:04:02;93226.53;;;16.74;35.39
11339;BME280;5724;42.684;23.252;2023-01-19T12:06:38;93236.44;;;16.48;35.71
11339;BME280;5724;42.684;23.252;2023-01-19T12:09:12;93244.44;;;16.42;35.91
11339;BME280;5724;42.684;23.252;2023-01-19T12:12:19;93241.06;;;16.54;35.96
11339;BME280;5724;42.684;23.252;2023-01-19T12:14:38;93242.50;;;16.39;35.75
11339;BME280;5724;42.684;23.252;2023-01-19T12:17:09;93236.72;;;16.34;36.04
11339;BME280;5724;42.684;23.252;2023-01-19T12:19:54;93226.81;;;16.16;35.99
11339;BME280;5724;42.684;23.252;2023-01-19T12:22:25;93247.50;;;16.05;35.68
11339;BME280;5724;42.684;23.252;2023-01-19T12:25:24;93233.59;;;15.88;35.94
11339;BME280;5724;42.684;23.252;2023-01-19T12:27:53;93228.59;;;15.80;36.09
11339;BME280;5724;42.684;23.252;2023-01-19T12:30:21;93215.94;;;15.86;36.00
11339;BME280;5724;42.684;23.252;2023-01-19T12:32:48;93225.56;;;15.97;36.80
11339;BME280;5724;42.684;23.252;2023-01-19T12:38:49;93248.91;;;16.13;36.58
11339;BME280;5724;42.684;23.252;2023-01-19T12:41:40;93203.31;;;16.08;35.77
11339;BME280;5724;42.684;23.252;2023-01-19T12:46:40;93250.72;;;16.23;35.52
11339;BME280;5724;42.684;23.252;2023-01-19T12:51:43;93238.84;;;16.26;35.44
11339;BME280;5724;42.684;23.252;2023-01-19T12:54:19;93260.97;;;16.22;35.67
11339;BME280;5724;42.684;23.252;2023-01-19T12:56:58;93236.97;;;16.19;35.55
11339;BME280;5724;42.684;23.252;2023-01-19T12:59:27;93223.84;;;16.27;35.51
11339;BME280;5724;42.684;23.252;2023-01-19T13:21:30;93231.19;;;15.67;36.22
11339;BME280;5724;42.684;23.252;2023-01-19T13:24:04;93248.91;;;15.66;36.70
11339;BME280;5724;42.684;23.252;2023-01-19T13:26:37;93233.09;;;15.70;36.95
11339;BME280;5724;42.684;23.252;2023-01-19T13:31:37;93211.91;;;15.67;36.67
11339;BME280;5724;42.684;23.252;2023-01-19T13:34:10;93212.41;;;15.58;36.65
11339;BME280;5724;42.684;23.252;2023-01-19T13:36:40;93199.59;;;15.75;36.65
11339;BME280;5724;42.684;23.252;2023-01-19T13:39:18;93201.38;;;15.85;36.62
11339;BME280;5724;42.684;23.252;2023-01-19T13:41:45;93205.81;;;16.02;36.24
11339;BME280;5724;42.684;23.252;2023-01-19T13:44:20;93208.59;;;15.99;36.20
11339;BME280;5724;42.684;23.252;2023-01-19T13:46:50;93178.72;;;15.97;36.12
11339;BME280;5724;42.684;23.252;2023-01-19T13:49:21;93204.41;;;16.14;36.02
11339;BME280;5724;42.684;23.252;2023-01-19T13:52:10;93198.28;;;16.26;35.54
11339;BME280;5724;42.684;23.252;2023-01-19T13:54:46;93186.59;;;16.19;36.21
11339;BME280;5724;42.684;23.252;2023-01-19T13:57:32;93193.38;;;16.14;36.28
11339;BME280;5724;42.684;23.252;2023-01-19T14:02:37;93220.63;;;16.09;36.13
11339;BME280;5724;42.684;23.252;2023-01-19T14:05:14;93208.59;;;15.99;36.27
11339;BME280;5724;42.684;23.252;2023-01-19T14:07:39;93216.53;;;15.73;36.57
11339;BME280;5724;42.684;23.252;2023-01-19T14:10:09;93203.28;;;15.88;36.50
11339;BME280;5724;42.684;23.252;2023-01-19T14:12:36;93219.31;;;15.70;36.69
11339;BME280;5724;42.684;23.252;2023-01-19T14:15:03;93211.38;;;15.49;37.02
11339;BME280;5724;42.684;23.252;2023-01-19T14:17:30;93205.31;;;15.34;37.01
11339;BME280;5724;42.684;23.252;2023-01-19T14:19:58;93216.06;;;15.25;37.48
11339;BME280;5724;42.684;23.252;2023-01-19T14:22:43;93229.16;;;15.17;37.40
11339;BME280;5724;42.684;23.252;2023-01-19T14:31:00;93228.63;;;14.99;38.17
11339;BME280;5724;42.684;23.252;2023-01-19T14:33:43;93234.56;;;14.94;38.19